TAF KLUK
KLUK 072321Z 0800/0824 00000KT P6SM VCSH OVC050 FM080900 00000KT P6SM BKN050 FM081500 23006KT P6SM SCT050 BKN100 FM082000 26008KT P6SM SCT250=
METAR KLUK
WC KLUK
WS KLUK
WV KLUK